createdAt,value
2022-09-24T00:00:33.189Z,10.17
2022-09-24T00:02:36.195Z,10.57
2022-09-24T00:04:39.229Z,10.80
2022-09-24T00:06:44.382Z,11.53
2022-09-24T00:08:48.699Z,11.87
2022-09-24T00:10:52.998Z,14.67
2022-09-24T00:12:56.214Z,16.07
2022-09-24T00:14:59.108Z,21.63
2022-09-24T00:17:02.038Z,21.00
2022-09-24T00:19:05.223Z,23.57
2022-09-24T00:21:19.677Z,22.03
2022-09-24T00:23:22.725Z,25.20
2022-09-24T00:25:43.362Z,26.37
2022-09-24T00:27:47.653Z,28.53
2022-09-24T00:29:50.639Z,27.63
2022-09-24T00:31:54.258Z,29.27
2022-09-24T00:33:58.213Z,27.17
2022-09-24T00:36:02.454Z,25.33
2022-09-24T00:38:06.188Z,25.30
2022-09-24T00:40:10.866Z,25.40
2022-09-24T00:42:14.005Z,25.40
2022-09-24T00:44:53.705Z,19.07
2022-09-24T00:46:58.221Z,15.83
2022-09-24T00:49:03.896Z,20.53
2022-09-24T00:51:07.059Z,18.67
2022-09-24T00:53:13.153Z,18.37
2022-09-24T00:55:16.495Z,16.77
2022-09-24T00:57:19.491Z,15.50
2022-09-24T00:59:24.558Z,15.13
2022-09-24T01:01:27.514Z,15.33
2022-09-24T01:03:33.427Z,13.73
2022-09-24T01:05:36.988Z,12.80
2022-09-24T01:07:39.957Z,13.17
2022-09-24T01:09:43.040Z,14.80
2022-09-24T01:11:49.960Z,13.57
2022-09-24T01:14:14.687Z,12.60
2022-09-24T01:16:26.377Z,12.20
2022-09-24T01:18:36.970Z,11.77
2022-09-24T01:20:57.734Z,11.10
2022-09-24T01:23:12.531Z,10.87
2022-09-24T01:25:21.764Z,10.10
2022-09-24T01:27:38.205Z,10.63
2022-09-24T01:29:49.800Z,9.67
2022-09-24T01:31:55.379Z,9.50
2022-09-24T01:34:00.376Z,10.00
2022-09-24T01:36:08.224Z,9.93
2022-09-24T01:38:15.187Z,9.83
2022-09-24T01:40:19.528Z,9.83
2022-09-24T01:42:23.433Z,9.97
2022-09-24T01:44:26.601Z,9.17
2022-09-24T01:46:31.967Z,10.30
2022-09-24T01:48:37.294Z,9.33
2022-09-24T01:50:45.053Z,9.80
2022-09-24T01:52:52.118Z,9.30
2022-09-24T01:54:56.428Z,10.10
2022-09-24T01:57:05.109Z,9.33
2022-09-24T01:59:12.983Z,9.60
2022-09-24T02:01:19.123Z,9.40
2022-09-24T02:03:28.805Z,9.87
2022-09-24T02:05:34.121Z,8.87
2022-09-24T02:07:40.700Z,9.57
2022-09-24T02:09:44.783Z,9.37
2022-09-24T02:11:50.896Z,9.87
2022-09-24T02:13:56.882Z,9.00
2022-09-24T02:16:01.291Z,10.00
2022-09-24T02:18:08.138Z,9.40
2022-09-24T02:20:15.121Z,9.23
2022-09-24T02:22:18.709Z,9.57
2022-09-24T02:24:24.073Z,9.63
2022-09-24T02:26:27.005Z,10.03
2022-09-24T02:28:30.468Z,9.60
2022-09-24T02:30:37.802Z,9.37
2022-09-24T02:32:42.118Z,9.93
2022-09-24T02:34:47.223Z,10.00
2022-09-24T02:36:54.024Z,9.60
2022-09-24T02:38:57.222Z,10.23
2022-09-24T02:41:00.150Z,9.60
2022-09-24T02:43:03.101Z,8.50
2022-09-24T02:45:08.031Z,9.73
2022-09-24T02:47:10.995Z,9.67
2022-09-24T02:49:14.135Z,10.63
2022-09-24T02:51:17.135Z,10.00
2022-09-24T02:53:21.402Z,9.73
2022-09-24T02:55:24.313Z,9.80
2022-09-24T02:57:27.239Z,8.70
2022-09-24T02:59:30.206Z,9.80
2022-09-24T03:01:33.727Z,9.50
2022-09-24T03:03:36.779Z,10.27
2022-09-24T03:05:39.716Z,9.60
2022-09-24T03:07:45.727Z,9.90
2022-09-24T03:09:53.387Z,10.20
2022-09-24T03:11:56.777Z,9.30
2022-09-24T03:14:00.496Z,9.90
2022-09-24T03:16:03.964Z,9.47
2022-09-24T03:18:07.485Z,9.30
2022-09-24T03:20:10.748Z,9.23
2022-09-24T03:22:13.677Z,9.57
2022-09-24T03:24:16.583Z,9.33
2022-09-24T03:26:20.883Z,9.83
2022-09-24T03:28:24.052Z,9.97
2022-09-24T03:30:44.551Z,10.73
2022-09-24T03:32:48.770Z,9.73
2022-09-24T03:34:51.688Z,10.30
2022-09-24T03:36:54.600Z,9.83
2022-09-24T03:38:58.478Z,9.60
2022-09-24T03:41:02.060Z,10.00
2022-09-24T03:43:06.313Z,9.60
2022-09-24T03:45:10.183Z,9.70
2022-09-24T03:47:13.564Z,9.43
2022-09-24T03:49:17.013Z,9.90
2022-09-24T03:51:20.522Z,9.70
2022-09-24T03:53:23.600Z,10.10
2022-09-24T03:55:26.640Z,9.83
2022-09-24T03:57:29.519Z,9.27
2022-09-24T03:59:33.879Z,8.90
2022-09-24T04:01:37.353Z,9.20
2022-09-24T04:03:40.675Z,9.70
2022-09-24T04:05:43.700Z,8.60
2022-09-24T04:07:46.780Z,9.93
2022-09-24T04:09:49.689Z,9.20
2022-09-24T04:11:53.361Z,8.90
2022-09-24T04:13:56.242Z,9.53
2022-09-24T04:16:04.665Z,8.97
2022-09-24T04:18:07.954Z,9.40
2022-09-24T04:20:12.933Z,8.97
2022-09-24T04:22:15.818Z,9.70
2022-09-24T04:24:19.053Z,9.53
2022-09-24T04:26:21.923Z,9.27
2022-09-24T04:28:25.194Z,9.70
2022-09-24T04:30:28.941Z,9.20
2022-09-24T04:32:33.403Z,9.50
2022-09-24T04:34:36.385Z,9.63
2022-09-24T04:36:39.316Z,9.30
2022-09-24T04:38:42.287Z,9.37
2022-09-24T04:40:47.222Z,9.40
2022-09-24T04:42:50.414Z,8.93
2022-09-24T04:44:56.139Z,10.27
2022-09-24T04:47:03.015Z,10.00
2022-09-24T04:49:09.632Z,9.20
2022-09-24T04:51:12.722Z,10.10
2022-09-24T04:53:15.640Z,9.40
2022-09-24T04:55:20.693Z,9.73
2022-09-24T04:57:23.734Z,9.67
2022-09-24T04:59:26.695Z,9.03
2022-09-24T05:01:30.212Z,10.40
2022-09-24T05:03:33.218Z,10.70
2022-09-24T05:05:37.606Z,9.30
2022-09-24T05:07:40.951Z,9.07
2022-09-24T05:09:43.948Z,10.10
2022-09-24T05:11:46.897Z,9.73
2022-09-24T05:13:49.900Z,9.60
2022-09-24T05:15:52.880Z,9.27
2022-09-24T05:17:55.875Z,10.50
2022-09-24T05:19:59.609Z,9.90
2022-09-24T05:22:03.975Z,9.27
2022-09-24T05:24:07.432Z,10.67
2022-09-24T05:26:27.657Z,10.60
2022-09-24T05:28:33.111Z,11.13
2022-09-24T05:30:37.010Z,9.90
2022-09-24T05:32:40.146Z,10.27
2022-09-24T05:34:43.600Z,10.37
2022-09-24T05:36:46.697Z,11.00
2022-09-24T05:38:50.979Z,11.80
2022-09-24T05:40:54.829Z,9.97
2022-09-24T05:43:01.268Z,10.53
2022-09-24T05:45:05.053Z,10.57
2022-09-24T05:47:08.062Z,10.33
2022-09-24T05:49:11.045Z,10.37
2022-09-24T05:51:14.073Z,10.90
2022-09-24T05:53:17.048Z,10.77
2022-09-24T05:55:21.432Z,9.90
2022-09-24T05:57:24.352Z,9.20
2022-09-24T05:59:27.673Z,9.90
2022-09-24T06:01:31.222Z,9.23
2022-09-24T06:03:34.295Z,10.30
2022-09-24T06:05:37.307Z,9.43
2022-09-24T06:07:40.570Z,9.97
2022-09-24T06:09:44.133Z,9.80
2022-09-24T06:11:50.387Z,9.50
2022-09-24T06:13:53.330Z,9.57
2022-09-24T06:16:01.467Z,10.03
2022-09-24T06:18:04.508Z,9.83
2022-09-24T06:20:16.455Z,10.23
2022-09-24T06:22:22.049Z,9.63
2022-09-24T06:24:26.909Z,10.30
2022-09-24T06:26:29.834Z,9.70
2022-09-24T06:28:34.144Z,9.73
2022-09-24T06:30:38.755Z,10.87
2022-09-24T06:32:41.709Z,10.87
2022-09-24T06:34:44.653Z,10.83
2022-09-24T06:36:47.575Z,11.70
2022-09-24T06:38:52.274Z,12.30
2022-09-24T06:40:59.964Z,16.93
2022-09-24T06:43:03.014Z,15.93
2022-09-24T06:45:08.720Z,13.70
2022-09-24T06:47:12.597Z,12.50
2022-09-24T06:49:15.554Z,12.27
2022-09-24T06:51:18.643Z,14.57
2022-09-24T06:53:21.676Z,11.57
2022-09-24T06:55:24.840Z,10.97
2022-09-24T06:57:29.013Z,10.47
2022-09-24T06:59:32.106Z,10.60
2022-09-24T07:01:36.622Z,10.30
2022-09-24T07:03:40.256Z,10.53
2022-09-24T07:05:44.061Z,10.13
2022-09-24T07:07:47.176Z,10.17
2022-09-24T07:09:50.157Z,10.03
2022-09-24T07:11:53.100Z,10.13
2022-09-24T07:13:56.071Z,9.80
2022-09-24T07:16:01.408Z,10.97
2022-09-24T07:18:05.983Z,10.83
2022-09-24T07:20:09.947Z,12.43
2022-09-24T07:22:12.949Z,11.50
2022-09-24T07:24:15.903Z,10.90
2022-09-24T07:26:18.952Z,9.63
2022-09-24T07:28:21.872Z,12.53
2022-09-24T07:30:27.197Z,12.40
2022-09-24T07:32:30.830Z,15.13
2022-09-24T07:34:35.181Z,31.00
2022-09-24T07:36:38.138Z,19.67
2022-09-24T07:38:41.114Z,19.40
2022-09-24T07:40:44.906Z,13.23
2022-09-24T07:42:48.377Z,10.13
2022-09-24T07:44:51.376Z,10.40
2022-09-24T07:46:54.457Z,11.10
2022-09-24T07:48:57.407Z,11.60
2022-09-24T07:51:01.753Z,11.30
2022-09-24T07:53:04.734Z,11.20
2022-09-24T07:55:09.155Z,11.17
2022-09-24T07:57:13.778Z,11.50
2022-09-24T07:59:16.718Z,11.93
2022-09-24T08:01:20.382Z,11.03
2022-09-24T08:03:23.521Z,11.27
2022-09-24T08:05:26.521Z,10.53
2022-09-24T08:07:30.818Z,11.03
2022-09-24T08:09:33.846Z,12.07
2022-09-24T08:11:36.889Z,11.40
2022-09-24T08:13:40.051Z,11.83
2022-09-24T08:15:43.071Z,12.43
2022-09-24T08:17:46.326Z,12.03
2022-09-24T08:19:49.267Z,12.40
2022-09-24T08:21:53.927Z,11.20
2022-09-24T08:23:58.271Z,12.33
2022-09-24T08:26:01.278Z,11.90
2022-09-24T08:28:05.011Z,12.30
2022-09-24T08:30:09.291Z,12.00
2022-09-24T08:32:12.952Z,11.43
2022-09-24T08:34:16.212Z,12.20
2022-09-24T08:36:19.289Z,12.10
2022-09-24T08:38:22.454Z,12.63
2022-09-24T08:40:30.169Z,12.00
2022-09-24T08:42:38.251Z,12.83
2022-09-24T08:45:01.097Z,14.70
2022-09-24T08:47:22.245Z,14.27
2022-09-24T08:49:29.136Z,13.67
2022-09-24T08:51:37.547Z,15.00
2022-09-24T08:53:46.151Z,15.20
2022-09-24T08:55:52.492Z,16.30
2022-09-24T08:58:00.611Z,15.90
2022-09-24T09:00:04.504Z,15.67
2022-09-24T09:02:19.350Z,14.23
2022-09-24T09:04:26.995Z,13.60
2022-09-24T09:06:53.788Z,14.87
2022-09-24T09:09:16.599Z,13.73
2022-09-24T09:11:24.023Z,14.77
2022-09-24T09:13:29.521Z,14.60
2022-09-24T09:15:35.079Z,13.60
2022-09-24T09:17:45.272Z,13.37
2022-09-24T09:19:53.838Z,14.13
2022-09-24T09:21:58.645Z,14.30
2022-09-24T09:24:03.065Z,14.90
2022-09-24T09:26:06.895Z,15.27
2022-09-24T09:28:15.343Z,14.40
2022-09-24T09:30:20.843Z,14.37
2022-09-24T09:32:32.314Z,14.70
2022-09-24T09:34:50.998Z,15.20
2022-09-24T09:37:04.963Z,14.80
2022-09-24T09:39:21.179Z,14.07
2022-09-24T09:41:30.397Z,14.90
2022-09-24T09:43:35.356Z,15.60
2022-09-24T09:45:43.104Z,15.40
2022-09-24T09:47:48.574Z,14.43
2022-09-24T09:49:53.923Z,16.20
2022-09-24T09:51:57.800Z,15.70
2022-09-24T09:54:02.085Z,15.30
2022-09-24T09:56:07.440Z,16.57
2022-09-24T09:58:19.769Z,15.53
2022-09-24T10:00:28.862Z,15.60
2022-09-24T10:02:33.553Z,15.70
2022-09-24T10:04:40.280Z,16.03
2022-09-24T10:06:43.228Z,15.73
2022-09-24T10:08:46.155Z,13.83
2022-09-24T10:10:55.293Z,13.97
2022-09-24T10:13:09.589Z,13.93
2022-09-24T10:15:19.118Z,13.93
2022-09-24T10:17:25.566Z,14.10
2022-09-24T10:19:29.932Z,12.57
2022-09-24T10:21:34.323Z,13.13
2022-09-24T10:23:39.247Z,14.47
2022-09-24T10:25:42.360Z,13.90
2022-09-24T10:27:45.327Z,15.50
2022-09-24T10:30:05.871Z,15.47
2022-09-24T10:32:16.074Z,15.70
2022-09-24T10:34:23.434Z,15.53
2022-09-24T10:36:28.061Z,15.63
2022-09-24T10:38:31.838Z,16.70
2022-09-24T10:40:41.066Z,15.77
2022-09-24T10:42:44.147Z,16.30
2022-09-24T10:44:52.590Z,16.00
2022-09-24T10:47:08.919Z,14.80
2022-09-24T10:49:20.435Z,15.53
2022-09-24T10:51:30.049Z,14.57
2022-09-24T10:53:44.125Z,15.23
2022-09-24T10:55:55.453Z,14.60
2022-09-24T10:58:04.053Z,14.07
2022-09-24T11:00:12.721Z,14.93
2022-09-24T11:02:43.152Z,16.53
2022-09-24T11:04:52.019Z,14.80
2022-09-24T11:07:17.959Z,15.90
2022-09-24T11:09:27.440Z,15.00
2022-09-24T11:11:40.106Z,15.13
2022-09-24T11:13:51.620Z,14.00
2022-09-24T11:16:18.058Z,12.50
2022-09-24T11:18:32.482Z,14.40
2022-09-24T11:20:37.799Z,13.13
2022-09-24T11:22:51.734Z,12.13
2022-09-24T11:25:11.224Z,12.40
2022-09-24T11:27:47.539Z,13.80
2022-09-24T11:29:59.854Z,14.00
2022-09-24T11:32:08.579Z,12.37
2022-09-24T11:34:36.899Z,12.23
2022-09-24T11:37:01.059Z,13.50
2022-09-24T11:39:24.563Z,12.80
2022-09-24T11:41:37.992Z,11.10
2022-09-24T11:44:22.239Z,12.93
2022-09-24T11:46:37.979Z,12.50
2022-09-24T11:48:56.648Z,12.77
2022-09-24T11:51:05.783Z,13.00
2022-09-24T11:53:14.465Z,12.50
2022-09-24T11:55:21.311Z,13.13
2022-09-24T11:57:26.663Z,12.97
2022-09-24T11:59:38.848Z,12.60
2022-09-24T12:01:48.697Z,12.70
2022-09-24T12:03:57.048Z,13.00
2022-09-24T12:06:04.337Z,13.10
2022-09-24T12:08:12.397Z,14.03
2022-09-24T12:10:29.823Z,14.57
2022-09-24T12:12:36.536Z,13.33
2022-09-24T12:14:45.998Z,13.70
2022-09-24T12:16:51.124Z,14.10
2022-09-24T12:18:56.952Z,13.80
2022-09-24T12:21:01.921Z,13.80
2022-09-24T12:23:07.927Z,13.40
2022-09-24T12:25:13.056Z,15.13
2022-09-24T12:27:20.418Z,14.83
2022-09-24T12:29:56.087Z,14.73
2022-09-24T12:32:22.215Z,13.90
2022-09-24T12:34:30.957Z,13.50
2022-09-24T12:36:57.028Z,13.70
2022-09-24T12:39:03.847Z,14.23
2022-09-24T12:41:22.077Z,13.50
2022-09-24T12:43:31.410Z,14.40
2022-09-24T12:45:35.209Z,14.50
2022-09-24T12:47:47.274Z,15.93
2022-09-24T12:49:53.805Z,15.57
2022-09-24T12:51:57.984Z,15.17
2022-09-24T12:54:07.115Z,14.70
2022-09-24T12:56:11.403Z,14.37
2022-09-24T12:58:29.283Z,14.20
2022-09-24T13:00:38.440Z,13.57
2022-09-24T13:02:46.249Z,14.13
2022-09-24T13:04:52.776Z,13.30
2022-09-24T13:06:56.058Z,14.53
2022-09-24T13:08:59.156Z,15.93
2022-09-24T13:11:05.768Z,15.80
2022-09-24T13:13:22.704Z,15.37
2022-09-24T13:15:31.963Z,16.17
2022-09-24T13:17:38.172Z,16.50
2022-09-24T13:19:43.631Z,17.47
2022-09-24T13:21:54.843Z,17.63
2022-09-24T13:23:58.462Z,18.30
2022-09-24T13:26:02.930Z,19.17
2022-09-24T13:28:21.798Z,22.70
2022-09-24T13:30:35.986Z,19.80
2022-09-24T13:32:45.105Z,21.00
2022-09-24T13:34:50.428Z,20.20
2022-09-24T13:36:58.438Z,19.87
2022-09-24T13:39:06.077Z,19.20
2022-09-24T13:41:22.317Z,18.97
2022-09-24T13:43:36.832Z,19.80
2022-09-24T13:45:43.724Z,20.33
2022-09-24T13:47:49.039Z,19.90
2022-09-24T13:49:53.128Z,19.37
2022-09-24T13:52:04.097Z,19.80
2022-09-24T13:54:13.147Z,19.57
2022-09-24T13:56:18.366Z,20.30
2022-09-24T13:58:28.665Z,18.23
2022-09-24T14:00:32.727Z,19.60
2022-09-24T14:02:38.883Z,20.40
2022-09-24T14:04:43.126Z,18.67
2022-09-24T14:06:50.385Z,19.00
2022-09-24T14:08:53.338Z,20.20
2022-09-24T14:11:08.015Z,19.17
2022-09-24T14:13:19.274Z,18.63
2022-09-24T14:15:22.324Z,18.63
2022-09-24T14:17:25.898Z,19.57
2022-09-24T14:19:30.271Z,22.70
2022-09-24T14:21:35.573Z,20.70
2022-09-24T14:23:41.396Z,23.10
2022-09-24T14:25:44.413Z,22.60
2022-09-24T14:27:49.487Z,21.10
2022-09-24T14:29:55.805Z,22.17
2022-09-24T14:32:00.168Z,22.43
2022-09-24T14:34:03.795Z,22.33
2022-09-24T14:36:11.679Z,21.13
2022-09-24T14:38:16.532Z,22.70
2022-09-24T14:40:21.883Z,22.60
2022-09-24T14:42:28.232Z,23.07
2022-09-24T14:44:31.334Z,22.10
2022-09-24T14:46:36.481Z,34.80
2022-09-24T14:48:41.011Z,32.20
2022-09-24T14:50:44.089Z,21.47
2022-09-24T14:52:56.679Z,21.70
2022-09-24T14:55:09.797Z,22.40
2022-09-24T14:57:24.490Z,21.50
2022-09-24T14:59:31.596Z,21.60
2022-09-24T15:01:34.855Z,22.87
2022-09-24T15:03:40.966Z,23.30
2022-09-24T15:05:46.175Z,23.13
2022-09-24T15:07:50.763Z,25.30
2022-09-24T15:09:54.957Z,24.60
2022-09-24T15:12:08.700Z,22.97
2022-09-24T15:14:15.648Z,20.57
2022-09-24T15:16:21.298Z,19.80
2022-09-24T15:18:24.484Z,21.30
2022-09-24T15:20:27.501Z,28.60
2022-09-24T15:22:31.510Z,25.83
2022-09-24T15:24:35.848Z,22.40
2022-09-24T15:26:41.459Z,20.43
2022-09-24T15:28:44.397Z,21.90
2022-09-24T15:30:47.421Z,21.10
2022-09-24T15:32:51.163Z,22.73
2022-09-24T15:34:54.989Z,22.90
2022-09-24T15:36:59.735Z,20.97
2022-09-24T15:39:04.876Z,23.33
2022-09-24T15:41:09.801Z,21.77
2022-09-24T15:43:21.999Z,20.00
2022-09-24T15:45:26.679Z,22.13
2022-09-24T15:47:29.690Z,24.20
2022-09-24T15:49:32.714Z,22.33
2022-09-24T15:51:35.717Z,20.73
2022-09-24T15:53:38.670Z,21.70
2022-09-24T15:55:41.727Z,21.87
2022-09-24T15:57:46.900Z,21.50
2022-09-24T15:59:50.115Z,21.50
2022-09-24T16:01:55.575Z,20.67
2022-09-24T16:03:58.842Z,20.03
2022-09-24T16:06:02.066Z,20.00
2022-09-24T16:08:04.983Z,21.13
2022-09-24T16:10:09.213Z,21.23
2022-09-24T16:12:15.250Z,22.07
2022-09-24T16:14:19.680Z,22.43
2022-09-24T16:16:22.807Z,20.90
2022-09-24T16:18:26.788Z,22.97
2022-09-24T16:20:29.836Z,23.30
2022-09-24T16:22:32.784Z,21.67
2022-09-24T16:24:36.134Z,22.20
2022-09-24T16:26:39.542Z,21.73
2022-09-24T16:28:42.526Z,22.70
2022-09-24T16:30:46.915Z,22.60
2022-09-24T16:32:50.080Z,21.83
2022-09-24T16:34:54.814Z,22.53
2022-09-24T16:36:57.852Z,23.20
2022-09-24T16:39:02.126Z,22.53
2022-09-24T16:41:05.494Z,22.60
2022-09-24T16:43:08.543Z,22.37
2022-09-24T16:45:12.470Z,22.30
2022-09-24T16:47:17.660Z,25.90
2022-09-24T16:49:20.655Z,24.07
2022-09-24T16:51:23.687Z,23.90
2022-09-24T16:53:26.648Z,23.97
2022-09-24T16:55:29.745Z,26.20
2022-09-24T16:57:32.829Z,26.50
2022-09-24T16:59:36.653Z,26.30
2022-09-24T17:01:42.328Z,25.50
2022-09-24T17:03:51.701Z,24.53
2022-09-24T17:05:54.656Z,25.47
2022-09-24T17:07:57.593Z,24.23
2022-09-24T17:10:15.981Z,25.70
2022-09-24T17:12:19.227Z,25.30
2022-09-24T17:14:22.223Z,26.63
2022-09-24T17:16:25.906Z,26.27
2022-09-24T17:18:28.870Z,26.77
2022-09-24T17:20:33.189Z,26.67
2022-09-24T17:22:36.308Z,26.47
2022-09-24T17:24:40.095Z,29.30
2022-09-24T17:26:43.111Z,26.10
2022-09-24T17:28:47.706Z,26.50
2022-09-24T17:30:52.310Z,27.37
2022-09-24T17:32:56.019Z,25.87
2022-09-24T17:34:59.033Z,25.13
2022-09-24T17:37:03.380Z,25.40
2022-09-24T17:39:07.096Z,23.97
2022-09-24T17:41:12.246Z,23.20
2022-09-24T17:43:15.237Z,23.07
2022-09-24T17:45:18.201Z,20.57
2022-09-24T17:47:21.175Z,20.30
2022-09-24T17:49:24.227Z,19.93
2022-09-24T17:51:30.350Z,20.60
2022-09-24T17:53:36.342Z,20.37
2022-09-24T17:55:41.275Z,20.10
2022-09-24T17:57:44.714Z,20.27
2022-09-24T17:59:47.709Z,19.23
2022-09-24T18:01:51.357Z,20.17
2022-09-24T18:03:55.132Z,21.70
2022-09-24T18:06:01.235Z,20.40
2022-09-24T18:08:04.611Z,21.77
2022-09-24T18:10:09.820Z,31.07
2022-09-24T18:12:17.057Z,30.23
2022-09-24T18:14:22.088Z,30.13
2022-09-24T18:16:26.675Z,30.93
2022-09-24T18:18:29.704Z,24.60
2022-09-24T18:20:32.762Z,25.97
2022-09-24T18:22:35.722Z,25.50
2022-09-24T18:24:38.881Z,25.90
2022-09-24T18:26:43.206Z,26.70
2022-09-24T18:28:49.357Z,27.63
2022-09-24T18:31:04.647Z,28.23
2022-09-24T18:33:08.136Z,27.20
2022-09-24T18:35:11.099Z,25.30
2022-09-24T18:37:14.014Z,25.50
2022-09-24T18:39:23.962Z,26.30
2022-09-24T18:41:29.870Z,27.77
2022-09-24T18:43:34.210Z,27.63
2022-09-24T18:45:37.325Z,27.33
2022-09-24T18:47:40.389Z,27.80
2022-09-24T18:49:44.235Z,25.30
2022-09-24T18:51:47.555Z,26.23
2022-09-24T18:53:52.665Z,26.40
2022-09-24T18:55:55.774Z,27.50
2022-09-24T18:57:58.747Z,30.30
2022-09-24T19:00:03.263Z,30.40
2022-09-24T19:02:06.370Z,29.47
2022-09-24T19:04:11.443Z,43.60
2022-09-24T19:06:14.516Z,42.70
2022-09-24T19:08:17.969Z,36.60
2022-09-24T19:10:20.936Z,37.80
2022-09-24T19:12:24.022Z,34.57
2022-09-24T19:14:27.247Z,30.53
2022-09-24T19:16:32.069Z,30.80
2022-09-24T19:18:36.598Z,30.07
2022-09-24T19:20:39.687Z,32.50
2022-09-24T19:22:50.023Z,29.67
2022-09-24T19:24:53.009Z,26.50
2022-09-24T19:26:56.037Z,25.23
2022-09-24T19:28:59.783Z,25.60
2022-09-24T19:31:03.856Z,29.33
2022-09-24T19:33:09.737Z,30.53
2022-09-24T19:35:14.095Z,26.37
2022-09-24T19:37:17.172Z,27.93
2022-09-24T19:39:20.281Z,25.30
2022-09-24T19:41:26.169Z,26.10
2022-09-24T19:43:29.512Z,25.53
2022-09-24T19:45:32.609Z,22.70
2022-09-24T19:47:35.655Z,23.60
2022-09-24T19:49:40.012Z,24.20
2022-09-24T19:51:43.046Z,24.70
2022-09-24T19:53:48.772Z,29.23
2022-09-24T19:55:51.708Z,28.30
2022-09-24T19:57:54.665Z,28.00
2022-09-24T19:59:57.637Z,28.87
2022-09-24T20:02:00.719Z,24.67
2022-09-24T20:04:05.379Z,24.27
2022-09-24T20:06:11.277Z,24.50
2022-09-24T20:08:15.130Z,23.80
2022-09-24T20:10:18.222Z,27.23
2022-09-24T20:12:21.117Z,24.40
2022-09-24T20:14:24.081Z,28.77
2022-09-24T20:16:28.317Z,30.50
2022-09-24T20:18:34.620Z,28.30
2022-09-24T20:20:37.670Z,27.90
2022-09-24T20:22:42.000Z,28.73
2022-09-24T20:24:44.977Z,28.20
2022-09-24T20:27:05.612Z,27.47
2022-09-24T20:29:09.648Z,26.70
2022-09-24T20:31:13.552Z,26.20
2022-09-24T20:33:17.667Z,26.53
2022-09-24T20:35:21.285Z,26.50
2022-09-24T20:37:24.495Z,26.80
2022-09-24T20:39:29.547Z,25.83
2022-09-24T20:41:32.537Z,26.80
2022-09-24T20:43:35.518Z,25.93
2022-09-24T20:45:41.218Z,26.00
2022-09-24T20:47:44.202Z,25.87
2022-09-24T20:49:47.184Z,24.67
2022-09-24T20:51:56.035Z,24.00
2022-09-24T20:54:00.764Z,24.87
2022-09-24T20:56:06.074Z,23.53
2022-09-24T20:58:09.086Z,24.30
2022-09-24T21:00:14.803Z,22.70
2022-09-24T21:02:17.877Z,24.90
2022-09-24T21:04:22.371Z,24.50
2022-09-24T21:06:25.425Z,24.20
2022-09-24T21:08:28.985Z,25.87
2022-09-24T21:10:32.492Z,25.37
2022-09-24T21:12:37.151Z,24.57
2022-09-24T21:14:40.279Z,24.07
2022-09-24T21:16:43.230Z,23.97
2022-09-24T21:18:46.557Z,23.10
2022-09-24T21:20:49.707Z,24.27
2022-09-24T21:22:52.711Z,25.30
2022-09-24T21:24:55.767Z,24.67
2022-09-24T21:27:00.068Z,23.87
2022-09-24T21:29:08.121Z,23.90
2022-09-24T21:31:11.310Z,24.20
2022-09-24T21:33:14.495Z,24.43
2022-09-24T21:35:17.668Z,26.27
2022-09-24T21:37:20.928Z,26.50
2022-09-24T21:39:26.510Z,27.13
2022-09-24T21:41:31.172Z,28.17
2022-09-24T21:43:35.124Z,25.27
2022-09-24T21:45:39.652Z,25.30
2022-09-24T21:47:42.621Z,23.40
2022-09-24T21:49:45.686Z,22.90
2022-09-24T21:51:48.647Z,22.93
2022-09-24T21:53:53.069Z,22.30
2022-09-24T21:55:56.013Z,23.20
2022-09-24T21:57:59.021Z,22.13
2022-09-24T22:00:04.368Z,21.70
2022-09-24T22:02:11.156Z,21.20
2022-09-24T22:04:14.242Z,20.60
2022-09-24T22:06:17.447Z,22.10
2022-09-24T22:08:27.159Z,20.57
2022-09-24T22:10:30.131Z,22.20
2022-09-24T22:12:35.361Z,21.73
2022-09-24T22:14:38.347Z,22.00
2022-09-24T22:16:41.501Z,20.73
2022-09-24T22:18:45.842Z,21.27
2022-09-24T22:20:49.748Z,21.77
2022-09-24T22:22:52.689Z,21.30
2022-09-24T22:24:55.755Z,21.20
2022-09-24T22:26:59.014Z,21.70
2022-09-24T22:29:03.766Z,22.67
2022-09-24T22:31:08.004Z,21.80
2022-09-24T22:33:31.060Z,21.30
2022-09-24T22:35:50.295Z,21.40
2022-09-24T22:37:53.260Z,20.77
2022-09-24T22:39:56.241Z,20.27
2022-09-24T22:41:59.146Z,21.80
2022-09-24T22:44:02.270Z,21.80
2022-09-24T22:46:07.264Z,21.23
2022-09-24T22:48:10.355Z,20.80
2022-09-24T22:50:13.728Z,21.43
2022-09-24T22:52:18.031Z,22.00
2022-09-24T22:54:20.978Z,22.07
2022-09-24T22:56:25.255Z,21.93
2022-09-24T22:58:28.225Z,21.50
2022-09-24T23:00:31.163Z,21.17
2022-09-24T23:02:35.473Z,21.40
2022-09-24T23:04:38.659Z,21.37
2022-09-24T23:06:42.126Z,20.87
2022-09-24T23:08:46.397Z,22.37
2022-09-24T23:10:49.308Z,21.57
2022-09-24T23:12:52.218Z,20.80
2022-09-24T23:14:58.078Z,22.10
2022-09-24T23:17:01.037Z,20.90
2022-09-24T23:19:05.892Z,20.37
2022-09-24T23:21:10.639Z,21.87
2022-09-24T23:23:13.650Z,21.30
2022-09-24T23:25:18.474Z,21.63
2022-09-24T23:27:21.873Z,20.73
2022-09-24T23:29:25.079Z,20.77
2022-09-24T23:31:29.533Z,21.93
2022-09-24T23:33:33.413Z,21.57
2022-09-24T23:35:36.278Z,20.80
2022-09-24T23:37:39.217Z,21.23
2022-09-24T23:39:42.145Z,20.70
2022-09-24T23:41:46.380Z,21.17
2022-09-24T23:43:49.332Z,22.50
2022-09-24T23:45:52.420Z,21.73
2022-09-24T23:47:55.403Z,21.90
2022-09-24T23:49:58.715Z,20.37
2022-09-24T23:52:01.996Z,21.43
2022-09-24T23:54:05.174Z,21.20
2022-09-24T23:56:09.166Z,20.03
2022-09-24T23:58:14.882Z,21.60
